メインページ
METAR-TAF:

METAR-TAF

空港 :

チャーチル, マニトバ州, カナダ

緯度: 58-44N, 経度: 094-04W, 海抜: 28m

現時点の気象観測

当レポートは1時間32分前の21:00(UTC)に作成
北西の風 5kt
気温 21°C
湿度 53%
気圧 1012 hPa
視程: 24.1km
高度7000ftの千切れ雲あり

METAR: CYYQ 262100Z 31005KT 15SM BKN070 21/11 A2988 RMK AC5 SLP122 DENSITY ALT 900FT

時間: 17:32 (22:32 UTC)

予報

当レポートは4時間53分前の17:39(UTC)に作成
予報は26日の 18時(UTC)から 27日の 18時(UTC)まで有効
北/北西の風 8kt
視程: 10km
高度4000ftの雲は散在している
26日の 2200時(UTC)から
南東の風 6kt
視程: 10km
高度5000ftの千切れ雲あり
26日の 22時(UTC)から 27日の 06時(UTC)まで一時的に
視程: 10km
弱いにわか雨
27日の 0600時(UTC)から
西の風 8kt
視程: 10km
高度5000ftの雲はほとんどない
27日の 10時(UTC)から 27日の 12時(UTC)まで徐々に
北/北東の風 8kt

TAF: CYYQ 261739Z 2618/2718 34008KT P6SM SCT040 FM262200 14006KT P6SM BKN050 TEMPO 2622/2706 P6SM -SHRA FM270600 26008KT P6SM FEW050 BECMG 2710/2712 03008KT RMK NXT FCST BY 270000Z

4,000以上の空港の気象観測と天気予報(METAR報とTAF報)

利用可能な観測所は地図上に黄色い丸と赤い丸で示す。

丸の上にカーソルを重ねると観測所名を参照できる。

次にクリックすると気象観測と天気予報を参照できる。

マップの切り替え:黒色「×」印の緑ボタンをクリックして拡大、「-」印の緑ボタンをクリックして縮小、緑色の三角印をクリックして隣りの地図に切り替え


METAR-TAF: